Abis Bremen — PCJO — position and weather

sailwx.info

Track history (hours):
 
Tides and Currents Weather Stations Pressure Air Temp Water Temp Dewpoint Dewpoint Depression Visibility Wind Speed Wind Dir Waves Ship Positions

Abis Bremen

Last reported at 2019-Sep-19 19:30 UTC. Time now 2019-Sep-19 19:43 UTC.
Position N 54°24' E 018°40'.

Length 90 m; draft 5.2 m.

Type: Ship. MMSI: 246778880.

Date/timePositionNaut miles runAvg speedWind from/ knotsBaromVisibWave heightAir tempDewpointWater temp
2019-Sep-19 19:30N 54°24' E 018°40'0 0.0
2019-Sep-19 19:00N 54°24' E 018°40'0 0.0
2019-Sep-19 18:30N 54°24' E 018°40'0 0.0
2019-Sep-19 18:00N 54°24' E 018°40'0 0.0
2019-Sep-19 17:30N 54°24' E 018°40'0 0.0
2019-Sep-19 17:00N 54°24' E 018°40'0 0.0
2019-Sep-19 16:30N 54°24' E 018°40'0 0.0
2019-Sep-19 16:00N 54°24' E 018°40'0 0.0
2019-Sep-19 15:30N 54°24' E 018°40'0 0.0
2019-Sep-19 15:00N 54°24' E 018°40'0 0.0
2019-Sep-19 14:30N 54°24' E 018°40'0 0.0
2019-Sep-19 14:00N 54°24' E 018°40'0 0.0
2019-Sep-19 13:30N 54°24' E 018°40'0 0.0
2019-Sep-19 13:00N 54°24' E 018°40'0 0.0
2019-Sep-19 12:30N 54°24' E 018°40'0 0.0
2019-Sep-19 12:00N 54°24' E 018°40'0 0.0
2019-Sep-19 11:30N 54°24' E 018°40'0 0.0
2019-Sep-19 11:00N 54°24' E 018°40'0 0.0
2019-Sep-19 10:30N 54°24' E 018°40'0 0.0
2019-Sep-19 10:00N 54°24' E 018°40'0 0.0
2019-Sep-19 09:30N 54°24' E 018°40'0 0.0
2019-Sep-19 09:00N 54°24' E 018°40'0 0.0
2019-Sep-19 08:30N 54°24' E 018°40'0 0.0
2019-Sep-19 08:00N 54°24' E 018°40'0 0.0
2019-Sep-19 07:30N 54°24' E 018°40'0 0.0
2019-Sep-19 07:00N 54°24' E 018°40'0 0.0
2019-Sep-19 06:30N 54°24' E 018°40'0 0.0
2019-Sep-19 06:00N 54°24' E 018°40'2 4.1
2019-Sep-19 05:30N 54°26' E 018°40'5 9.3
2019-Sep-19 05:00N 54°30' E 018°45'510.2
2019-Sep-19 04:30N 54°34' E 018°50'510.1
2019-Sep-19 04:00N 54°38' E 018°55'510.3
2019-Sep-19 03:30N 54°43' E 018°58'5 9.6
2019-Sep-19 03:00N 54°47' E 018°54'611.0
2019-Sep-19 02:30N 54°51' E 018°47'511.0
2019-Sep-19 02:00N 54°54' E 018°39'5 9.9
2019-Sep-19 01:30N 54°55' E 018°31'510.1
2019-Sep-19 01:00N 54°55' E 018°22'710.3
2019-Sep-19 00:22N 54°56' E 018°11'410.1
2019-Sep-18 23:59N 54°56' E 018°04'8110.2
2019-Sep-18 16:04N 54°57' E 015°43'110.1
2019-Sep-18 16:00N 54°57' E 015°42'710.2
2019-Sep-18 15:19N 54°57' E 015°30'310.1
2019-Sep-18 15:00N 54°56' E 015°24'510.3
2019-Sep-18 14:30N 54°56' E 015°16'510.2
2019-Sep-18 14:00N 54°57' E 015°07'510.4
2019-Sep-18 13:30N 54°57' E 014°58'510.3
2019-Sep-18 13:00N 54°57' E 014°49'510.6
2019-Sep-18 12:30N 54°57' E 014°40'510.8
2019-Sep-18 12:00N 54°57' E 014°30'5111.2
2019-Sep-18 07:26N 55°12' E 013°05'511.0
2019-Sep-18 07:00N 55°14' E 012°57'610.9
2019-Sep-18 06:29N 55°16' E 012°48'511.2
2019-Sep-18 06:00N 55°18' E 012°39'5 9.8
2019-Sep-18 05:30N 55°23' E 012°39'510.5
2019-Sep-18 05:00N 55°28' E 012°41'510.6
2019-Sep-18 04:30N 55°33' E 012°42'5 9.7
2019-Sep-18 04:00N 55°38' E 012°42'611.3
2019-Sep-18 03:30N 55°44' E 012°41'511.0
2019-Sep-18 03:00N 55°49' E 012°42'611.5
2019-Sep-18 02:30N 55°54' E 012°38'611.2
2019-Sep-18 02:00N 56°00' E 012°38'510.5
2019-Sep-18 01:30N 56°05' E 012°35'6910.8
2019-Sep-17 19:03N 57°07' E 011°37'110.7
2019-Sep-17 19:00N 57°07' E 011°37'510.9
2019-Sep-17 18:30N 57°12' E 011°34'611.3
2019-Sep-17 18:00N 57°18' E 011°30'611.6
2019-Sep-17 17:30N 57°23' E 011°27'611.3
2019-Sep-17 17:00N 57°28' E 011°22'611.4
2019-Sep-17 16:30N 57°32' E 011°14'510.8
2019-Sep-17 16:00N 57°36' E 011°07'510.8
2019-Sep-17 15:30N 57°39' E 010°60'510.9
2019-Sep-17 15:00N 57°43' E 010°52'611.3
2019-Sep-17 14:30N 57°47' E 010°44'611.6
2019-Sep-17 14:00N 57°47' E 010°33'612.0
2019-Sep-17 13:30N 57°47' E 010°22'1811.2
2019-Sep-17 11:52N 57°49' E 009°47'412.1
2019-Sep-17 11:30N 57°50' E 009°39'612.3
2019-Sep-17 11:00N 57°50' E 009°28'611.9
2019-Sep-17 10:30N 57°51' E 009°16'611.4
2019-Sep-17 09:59N 57°51' E 009°05'510.8
2019-Sep-17 09:30N 57°51' E 008°56'5 9.8
2019-Sep-17 09:00N 57°52' E 008°47'510.6
2019-Sep-17 08:30N 57°52' E 008°37'510.8
2019-Sep-17 08:00N 57°52' E 008°27'510.6
2019-Sep-17 07:30N 57°53' E 008°17'510.3
2019-Sep-17 07:00N 57°53' E 008°07'510.0
2019-Sep-17 06:30N 57°54' E 007°58'510.0
2019-Sep-17 06:00N 57°54' E 007°48'510.2
2019-Sep-17 05:30N 57°55' E 007°39'510.1
2019-Sep-17 05:00N 57°55' E 007°29'5 9.8
2019-Sep-17 04:30N 57°56' E 007°20'510.1
2019-Sep-17 04:00N 57°56' E 007°10'510.3
2019-Sep-17 03:30N 57°56' E 007°01'510.0
2019-Sep-17 03:00N 57°58' E 006°52'611.1
2019-Sep-17 02:30N 58°00' E 006°42'611.1
2019-Sep-17 02:00N 58°03' E 006°33'510.9
2019-Sep-17 01:30N 58°06' E 006°25'510.6
2019-Sep-17 01:00N 58°10' E 006°17'611.7
2019-Sep-17 00:30N 58°14' E 006°10'611.8
2019-Sep-17 00:00N 58°18' E 006°02'611.5
2019-Sep-16 23:30N 58°22' E 005°54'611.4
2019-Sep-16 23:00N 58°26' E 005°46'611.2
2019-Sep-16 22:30N 58°30' E 005°39'612.1
2019-Sep-16 22:00N 58°35' E 005°33'612.1
2019-Sep-16 21:30N 58°40' E 005°26'611.7
2019-Sep-16 21:00N 58°45' E 005°20'611.7
2019-Sep-16 20:30N 58°50' E 005°14'611.7
2019-Sep-16 20:00N 58°55' E 005°08'611.6
2019-Sep-16 19:30N 58°59' E 005°01'510.8
2019-Sep-16 19:00N 59°04' E 004°54'510.4
2019-Sep-16 18:30N 59°08' E 004°48'510.0
2019-Sep-16 18:00N 59°12' E 004°43'5 9.7
2019-Sep-16 17:30N 59°17' E 004°41'510.0
2019-Sep-16 17:00N 59°22' E 004°41'5 9.9
2019-Sep-16 16:30N 59°27' E 004°41'5 9.5
2019-Sep-16 16:00N 59°32' E 004°41'5 9.7
2019-Sep-16 15:30N 59°36' E 004°42'5 9.6
2019-Sep-16 15:00N 59°41' E 004°42'5 9.4
2019-Sep-16 14:30N 59°46' E 004°42'4 9.0
2019-Sep-16 14:00N 59°50' E 004°42'5 9.1
2019-Sep-16 13:30N 59°55' E 004°42'5 9.2
2019-Sep-16 13:00N 59°60' E 004°41'5 9.5
2019-Sep-16 12:30N 60°04' E 004°41'5 9.3
2019-Sep-16 12:00N 60°09' E 004°40'4 9.2
2019-Sep-16 11:30N 60°13' E 004°40'5 9.1
2019-Sep-16 11:00N 60°18' E 004°40'4 8.8
2019-Sep-16 10:29N 60°22' E 004°39'4 8.9
2019-Sep-16 10:00N 60°27' E 004°39'4 8.8
2019-Sep-16 09:30N 60°31' E 004°39'4 8.6
2019-Sep-16 08:59N 60°36' E 004°39'5 9.3
2019-Sep-16 08:30N 60°40' E 004°38'4 8.8
2019-Sep-16 08:00N 60°45' E 004°39'4 7.2
2019-Sep-16 07:30N 60°47' E 004°45'4 8.4
2019-Sep-16 07:00N 60°51' E 004°47'510.5
2019-Sep-16 06:30N 60°51' E 004°58'3 5.9
2019-Sep-16 05:58N 60°51' E 005°04'0 0.0
2019-Sep-16 05:28N 60°51' E 005°04'0 0.0
2019-Sep-16 04:58N 60°51' E 005°04'0 0.0
2019-Sep-16 04:28N 60°51' E 005°04'0 0.0
2019-Sep-16 03:58N 60°51' E 005°04'0 0.0
2019-Sep-16 03:25N 60°51' E 005°04'0 0.0
2019-Sep-16 02:58N 60°51' E 005°04'0 0.0
2019-Sep-16 02:28N 60°51' E 005°04'0 0.0
2019-Sep-16 01:58N 60°51' E 005°04'0 0.0
2019-Sep-16 01:28N 60°51' E 005°04'0 0.0
2019-Sep-16 00:58N 60°51' E 005°04'0 0.0
2019-Sep-16 00:28N 60°51' E 005°04'0 0.0
2019-Sep-15 23:58N 60°51' E 005°04'0 0.0
2019-Sep-15 23:28N 60°51' E 005°04'0 0.0
2019-Sep-15 22:58N 60°51' E 005°04'0 0.0
2019-Sep-15 22:28N 60°51' E 005°04'0 0.0
2019-Sep-15 21:58N 60°51' E 005°04'0 0.0
2019-Sep-15 21:28N 60°51' E 005°04'0 0.0
2019-Sep-15 20:58N 60°51' E 005°04'0 0.0
2019-Sep-15 20:28N 60°51' E 005°04'0 0.0
2019-Sep-15 19:58N 60°51' E 005°04'0 0.0
2019-Sep-15 19:28N 60°51' E 005°04'0 0.0
2019-Sep-15 18:58N 60°51' E 005°04'0 0.0
2019-Sep-15 18:28N 60°51' E 005°04'0 0.0
2019-Sep-15 17:58N 60°51' E 005°04'0 0.0
2019-Sep-15 17:28N 60°51' E 005°04'0 0.0
2019-Sep-15 16:55N 60°51' E 005°04'0 0.0
2019-Sep-15 16:28N 60°51' E 005°04'0 0.0
2019-Sep-15 15:58N 60°51' E 005°04'0 0.0
2019-Sep-15 15:28N 60°51' E 005°04'0 0.0
2019-Sep-15 14:58N 60°51' E 005°04'0 0.0
2019-Sep-15 14:28N 60°51' E 005°04'0 0.0
2019-Sep-15 13:58N 60°51' E 005°04'0 0.0
2019-Sep-15 13:28N 60°51' E 005°04'0 0.0
2019-Sep-15 12:58N 60°51' E 005°04'0 0.0
2019-Sep-15 12:28N 60°51' E 005°04'0 0.0
2019-Sep-15 11:58N 60°51' E 005°04'0 0.0
2019-Sep-15 11:28N 60°51' E 005°04'0 0.0
2019-Sep-15 10:58N 60°51' E 005°04'0 0.0
2019-Sep-15 10:28N 60°51' E 005°04'0 0.0
2019-Sep-15 09:58N 60°51' E 005°04'0 0.0
2019-Sep-15 09:28N 60°51' E 005°04'0 0.0
2019-Sep-15 08:58N 60°51' E 005°04'0 0.0
2019-Sep-15 08:28N 60°51' E 005°04'0 0.0
2019-Sep-15 07:58N 60°51' E 005°04'0 0.0
2019-Sep-15 07:28N 60°51' E 005°04'0 0.0
2019-Sep-15 06:58N 60°51' E 005°04'0 0.0
2019-Sep-15 06:28N 60°51' E 005°04'0 0.0
2019-Sep-15 05:58N 60°51' E 005°04'0 0.0
2019-Sep-15 05:28N 60°51' E 005°04'0 0.0
2019-Sep-15 04:58N 60°51' E 005°04'0 0.0
2019-Sep-15 04:28N 60°51' E 005°04'0 0.0
2019-Sep-15 03:58N 60°51' E 005°04'0 0.0
2019-Sep-15 03:28N 60°51' E 005°04'0 0.0
2019-Sep-15 02:58N 60°51' E 005°04'0 0.0
2019-Sep-15 02:28N 60°51' E 005°04'0 0.0
2019-Sep-15 01:58N 60°51' E 005°04'0 0.0
2019-Sep-15 01:28N 60°51' E 005°04'0 0.0
2019-Sep-15 00:58N 60°51' E 005°04'0 0.0
2019-Sep-15 00:28N 60°51' E 005°04'0 0.0
2019-Sep-14 23:58N 60°51' E 005°04'0 0.0
2019-Sep-14 23:28N 60°51' E 005°04'0 0.0
2019-Sep-14 22:58N 60°51' E 005°04'0 0.0
2019-Sep-14 22:28N 60°51' E 005°04'0 0.0
2019-Sep-14 21:58N 60°51' E 005°04'0 0.0
2019-Sep-14 21:28N 60°51' E 005°04'0 0.0
2019-Sep-14 20:58N 60°51' E 005°04'0 0.3
2019-Sep-14 20:30N 60°51' E 005°04'3 5.2
2019-Sep-14 20:00N 60°49' E 005°03'0 0.0
2019-Sep-14 19:30N 60°49' E 005°03'0 0.0
2019-Sep-14 19:00N 60°49' E 005°03'0 0.0
2019-Sep-14 18:30N 60°49' E 005°03'0 0.0
2019-Sep-14 18:00N 60°49' E 005°03'0 0.0
2019-Sep-14 17:30N 60°49' E 005°03'0 0.0
2019-Sep-14 17:00N 60°49' E 005°03'0 0.0
2019-Sep-14 16:30N 60°49' E 005°03'0 0.0
2019-Sep-14 16:00N 60°49' E 005°03'0 0.0
2019-Sep-14 15:30N 60°49' E 005°03'0 0.0
2019-Sep-14 15:00N 60°49' E 005°03'0 0.0
2019-Sep-14 14:30N 60°49' E 005°03'0 0.0
2019-Sep-14 14:00N 60°49' E 005°03'0 0.0
2019-Sep-14 13:30N 60°49' E 005°03'0 0.0
2019-Sep-14 13:00N 60°49' E 005°03'0 0.0
2019-Sep-14 12:30N 60°49' E 005°03'0 0.0
2019-Sep-14 12:00N 60°49' E 005°03'0 0.0
2019-Sep-14 11:30N 60°49' E 005°03'0 0.0
2019-Sep-14 11:00N 60°49' E 005°03'0 0.0
2019-Sep-14 10:30N 60°49' E 005°03'0 0.0
2019-Sep-14 10:00N 60°49' E 005°03'0 0.0
2019-Sep-14 09:30N 60°49' E 005°03'0 0.0
2019-Sep-14 09:00N 60°49' E 005°03'0 0.0
2019-Sep-14 08:30N 60°49' E 005°03'0 0.0
2019-Sep-14 08:00N 60°49' E 005°03'0 0.0
2019-Sep-14 07:30N 60°49' E 005°03'0 0.0
2019-Sep-14 07:00N 60°49' E 005°03'0 0.0
2019-Sep-14 06:30N 60°49' E 005°03'0 0.0
2019-Sep-14 06:00N 60°49' E 005°03'0 0.0
2019-Sep-14 05:30N 60°49' E 005°03'0 0.0
2019-Sep-14 05:00N 60°49' E 005°03'0 0.0
2019-Sep-14 04:30N 60°49' E 005°03'0 0.0
2019-Sep-14 04:00N 60°49' E 005°03'0 0.0
2019-Sep-14 03:30N 60°49' E 005°03'0 0.0
2019-Sep-14 03:00N 60°49' E 005°03'0 0.0
2019-Sep-14 02:30N 60°49' E 005°03'0 0.0
2019-Sep-14 02:00N 60°49' E 005°03'0 0.0
2019-Sep-14 01:27N 60°49' E 005°03'0 0.0
2019-Sep-14 01:00N 60°49' E 005°03'0 0.0
2019-Sep-14 00:30N 60°49' E 005°03'0 0.0
2019-Sep-14 00:00N 60°49' E 005°03'0 0.0
2019-Sep-13 23:30N 60°49' E 005°03'0 0.0
2019-Sep-13 23:00N 60°49' E 005°03'0 0.0
2019-Sep-13 22:30N 60°49' E 005°03'0 0.0
2019-Sep-13 22:00N 60°49' E 005°03'0 0.0
2019-Sep-13 21:30N 60°49' E 005°03'0 0.0
2019-Sep-13 21:00N 60°49' E 005°03'0 0.0
2019-Sep-13 20:30N 60°49' E 005°03'0 0.0
2019-Sep-13 20:00N 60°49' E 005°03'0 0.0
2019-Sep-13 19:30N 60°49' E 005°03'0 0.0
2019-Sep-13 19:00N 60°49' E 005°03'0 0.0
2019-Sep-13 18:30N 60°49' E 005°03'0 0.0
2019-Sep-13 18:00N 60°49' E 005°03'0 0.0
2019-Sep-13 17:30N 60°49' E 005°03'0 0.0
2019-Sep-13 17:00N 60°49' E 005°03'0 0.0
2019-Sep-13 16:30N 60°49' E 005°03'0 0.0
2019-Sep-13 16:00N 60°49' E 005°03'0 0.0
2019-Sep-13 15:30N 60°49' E 005°03'0 0.0
2019-Sep-13 15:00N 60°49' E 005°03'0 0.0
2019-Sep-13 14:30N 60°49' E 005°03'0 0.0
2019-Sep-13 14:00N 60°49' E 005°03'0 0.0
2019-Sep-13 13:30N 60°49' E 005°03'0 0.0
2019-Sep-13 13:00N 60°49' E 005°03'0 0.0
2019-Sep-13 12:30N 60°49' E 005°03'0 0.0
2019-Sep-13 12:00N 60°49' E 005°03'0 0.0
2019-Sep-13 11:30N 60°49' E 005°03'0 0.0
2019-Sep-13 11:00N 60°49' E 005°03'0 0.0
2019-Sep-13 10:30N 60°49' E 005°03'0 0.0
2019-Sep-13 10:00N 60°49' E 005°03'0 0.0
2019-Sep-13 09:30N 60°49' E 005°03'0 0.0
2019-Sep-13 09:00N 60°49' E 005°03'0 0.0
2019-Sep-13 08:30N 60°49' E 005°03'0 0.0
2019-Sep-13 08:00N 60°49' E 005°03'0 0.0
2019-Sep-13 07:30N 60°49' E 005°03'0 0.0
2019-Sep-13 07:00N 60°49' E 005°03'0 0.0
2019-Sep-13 06:30N 60°49' E 005°03'0 0.0
2019-Sep-13 06:00N 60°49' E 005°03'0 0.0
2019-Sep-13 05:30N 60°49' E 005°03'0 0.0
2019-Sep-13 05:00N 60°49' E 005°03'0 0.0
2019-Sep-13 04:30N 60°49' E 005°03'0 0.0
2019-Sep-13 03:59N 60°49' E 005°03'1 1.3
2019-Sep-13 03:30N 60°49' E 005°02'510.3
2019-Sep-13 03:00N 60°51' E 004°52'7 7.3
2019-Sep-13 02:00N 60°45' E 004°45'4 7.6
2019-Sep-13 01:30N 60°42' E 004°39'611.4
2019-Sep-13 01:00N 60°36' E 004°41'611.3
2019-Sep-13 00:30N 60°31' E 004°44'611.4
2019-Sep-13 00:00N 60°25' E 004°47'610.9
2019-Sep-12 23:30N 60°20' E 004°49'510.6
2019-Sep-12 23:00N 60°15' E 004°52'510.6
2019-Sep-12 22:30N 60°10' E 004°54'611.0
2019-Sep-12 21:59N 60°04' E 004°56'510.6
2019-Sep-12 21:30N 59°59' E 004°54'510.8
2019-Sep-12 21:00N 59°54' E 004°53'510.7
2019-Sep-12 20:30N 59°48' E 004°51'511.1
2019-Sep-12 20:00N 59°43' E 004°50'611.2
2019-Sep-12 19:30N 59°37' E 004°48'611.3
2019-Sep-12 18:59N 59°32' E 004°47'611.7
2019-Sep-12 18:30N 59°26' E 004°45'611.7
2019-Sep-12 18:00N 59°20' E 004°43'611.3
2019-Sep-12 17:30N 59°15' E 004°43'511.1
2019-Sep-12 17:00N 59°10' E 004°49'611.2
2019-Sep-12 16:30N 59°05' E 004°55'611.3
2019-Sep-12 16:00N 59°01' E 005°01'611.3
2019-Sep-12 15:30N 58°56' E 005°07'610.9
2019-Sep-12 15:00N 58°51' E 005°13'510.4
2019-Sep-12 14:30N 58°47' E 005°18'510.3
2019-Sep-12 14:00N 58°43' E 005°23'510.2
2019-Sep-12 13:30N 58°38' E 005°28'510.2
2019-Sep-12 13:00N 58°34' E 005°34'5 9.8
2019-Sep-12 12:30N 58°30' E 005°40'510.0
2019-Sep-12 12:00N 58°27' E 005°47'510.1
2019-Sep-12 11:30N 58°23' E 005°53'510.5
2019-Sep-12 11:00N 58°19' E 006°01'510.5
2019-Sep-12 10:30N 58°16' E 006°08'510.3
2019-Sep-12 10:00N 58°12' E 006°15'510.1
2019-Sep-12 09:30N 58°09' E 006°22'5 9.9
2019-Sep-12 09:00N 58°05' E 006°29'5 9.4
2019-Sep-12 08:30N 58°03' E 006°36'5 9.6
2019-Sep-12 08:00N 58°01' E 006°44'5 9.8
2019-Sep-12 07:30N 57°59' E 006°53'5 9.6
2019-Sep-12 07:00N 57°57' E 007°01'5 9.2
2019-Sep-12 06:30N 57°56' E 007°10'5 9.2
2019-Sep-12 06:00N 57°56' E 007°18'5 9.0
2019-Sep-12 05:29N 57°55' E 007°27'4 8.9
2019-Sep-12 05:00N 57°56' E 007°35'5 9.0
2019-Sep-12 04:30N 57°55' E 007°44'5 9.1
2019-Sep-12 04:00N 57°55' E 007°52'4 8.7
2019-Sep-12 03:30N 57°55' E 008°00'4 8.3
2019-Sep-12 03:00N 57°54' E 008°08'4 7.9
2019-Sep-12 02:30N 57°54' E 008°15'4 7.7
2019-Sep-12 02:00N 57°54' E 008°23'4 7.4
2019-Sep-12 01:30N 57°54' E 008°30'4 7.3
2019-Sep-12 01:00N 57°54' E 008°37'4 7.8
2019-Sep-12 00:30N 57°54' E 008°44'4 7.5
2019-Sep-12 00:00N 57°53' E 008°51'4 8.4
2019-Sep-11 23:29N 57°53' E 008°59'4 8.8
2019-Sep-11 23:00N 57°53' E 009°07'4 8.7
2019-Sep-11 22:29N 57°53' E 009°15'4 8.4
2019-Sep-11 22:00N 57°52' E 009°23'4 8.3
2019-Sep-11 21:30N 57°52' E 009°31'4 8.3
2019-Sep-11 21:00N 57°51' E 009°39'4 8.0
2019-Sep-11 20:27N 57°51' E 009°47'4 8.2
2019-Sep-11 19:59N 57°51' E 009°54'15 6.4
2019-Sep-11 17:40N 57°50' E 010°22'1 6.3
2019-Sep-11 17:30N 57°50' E 010°24'3 6.8
2019-Sep-11 17:00N 57°50' E 010°30'5 9.3
2019-Sep-11 16:30N 57°50' E 010°39'5 9.3
2019-Sep-11 16:00N 57°49' E 010°47'510.4
2019-Sep-11 15:30N 57°45' E 010°55'510.5
2019-Sep-11 15:00N 57°41' E 011°02'510.5
2019-Sep-11 14:30N 57°38' E 011°09'510.8
2019-Sep-11 14:00N 57°34' E 011°16'510.9
2019-Sep-11 13:30N 57°30' E 011°23'611.2
2019-Sep-11 13:00N 57°25' E 011°29'612.3
2019-Sep-11 12:30N 57°20' E 011°32'612.0
2019-Sep-11 12:00N 57°14' E 011°35'611.8
2019-Sep-11 11:30N 57°08' E 011°39'611.7
2019-Sep-11 11:00N 57°03' E 011°43'611.7
2019-Sep-11 10:28N 56°57' E 011°47'611.4
2019-Sep-11 09:58N 56°52' E 011°50'4510.4
2019-Sep-11 05:41N 56°11' E 012°24'2 9.7
2019-Sep-11 05:30N 56°10' E 012°26'5 9.6
2019-Sep-11 05:00N 56°07' E 012°33'510.3
2019-Sep-11 04:30N 56°03' E 012°40'510.7
2019-Sep-11 04:00N 55°58' E 012°43'510.3
2019-Sep-11 03:30N 55°53' E 012°44'611.1
2019-Sep-11 03:00N 55°48' E 012°43'611.3
2019-Sep-11 02:30N 55°42' E 012°41'510.1
2019-Sep-11 02:00N 55°37' E 012°42'4 8.5
2019-Sep-11 01:30N 55°33' E 012°43'5 9.1
2019-Sep-11 01:00N 55°28' E 012°43'510.6
2019-Sep-11 00:30N 55°23' E 012°42'5 9.8
2019-Sep-11 00:00N 55°18' E 012°42'610.1
2019-Sep-10 23:26N 55°16' E 012°52'64 9.3
2019-Sep-10 16:35N 55°22' E 014°44'111.3
2019-Sep-10 16:28N 55°22' E 014°46'511.4
2019-Sep-10 16:00N 55°20' E 014°55'611.3
2019-Sep-10 15:28N 55°18' E 015°05'511.2
2019-Sep-10 15:00N 55°17' E 015°13'611.3
2019-Sep-10 14:29N 55°16' E 015°23'611.4
2019-Sep-10 14:00N 55°15' E 015°33'611.5
2019-Sep-10 13:30N 55°13' E 015°43'8111.2
2019-Sep-10 06:19N 54°56' E 018°00'411.3
2019-Sep-10 06:00N 54°56' E 018°06'611.3
2019-Sep-10 05:28N 54°56' E 018°17'511.5
2019-Sep-10 05:00N 54°56' E 018°26'611.2
2019-Sep-10 04:30N 54°56' E 018°36'611.6
2019-Sep-10 04:00N 54°52' E 018°44'611.7
2019-Sep-10 03:30N 54°49' E 018°52'611.8
2019-Sep-10 03:00N 54°45' E 018°59'611.2
2019-Sep-10 02:30N 54°39' E 018°57'611.6
2019-Sep-10 02:00N 54°34' E 018°52'611.6
2019-Sep-10 01:30N 54°30' E 018°46'611.3
2019-Sep-10 01:00N 54°26' E 018°39'2 4.1
2019-Sep-10 00:30N 54°24' E 018°41'0 0.0
2019-Sep-10 00:00N 54°24' E 018°41'0 0.0
2019-Sep-09 23:30N 54°24' E 018°41'0 0.0
2019-Sep-09 23:00N 54°24' E 018°41'0 0.0
2019-Sep-09 22:30N 54°24' E 018°41'0 0.0
2019-Sep-09 22:00N 54°24' E 018°41'0 0.0
2019-Sep-09 21:30N 54°24' E 018°41'0 0.0
2019-Sep-09 21:00N 54°24' E 018°41'0 0.0
2019-Sep-09 20:30N 54°24' E 018°41'0 0.0
2019-Sep-09 20:00N 54°24' E 018°41'  
Track history (hours):
 
Tides and Currents Weather Stations Pressure Air Temp Water Temp Dewpoint Dewpoint Depression Visibility Wind Speed Wind Dir Waves Ship Positions

Abis Bremen

Last reported at 2019-Sep-19 19:30 UTC. Time now 2019-Sep-19 19:43 UTC.
Position N 54°24' E 018°40'.

Length 90 m; draft 5.2 m.

Type: Ship. MMSI: 246778880.

Date/timePositionNaut miles runAvg speedWind from/ knotsBaromVisibWave heightAir tempDewpointWater temp
2019-Sep-19 19:30N 54°24' E 018°40'0 0.0
2019-Sep-19 19:00N 54°24' E 018°40'0 0.0
2019-Sep-19 18:30N 54°24' E 018°40'0 0.0
2019-Sep-19 18:00N 54°24' E 018°40'0 0.0
2019-Sep-19 17:30N 54°24' E 018°40'0 0.0
2019-Sep-19 17:00N 54°24' E 018°40'0 0.0
2019-Sep-19 16:30N 54°24' E 018°40'0 0.0
2019-Sep-19 16:00N 54°24' E 018°40'0 0.0
2019-Sep-19 15:30N 54°24' E 018°40'0 0.0
2019-Sep-19 15:00N 54°24' E 018°40'0 0.0
2019-Sep-19 14:30N 54°24' E 018°40'0 0.0
2019-Sep-19 14:00N 54°24' E 018°40'0 0.0
2019-Sep-19 13:30N 54°24' E 018°40'0 0.0
2019-Sep-19 13:00N 54°24' E 018°40'0 0.0
2019-Sep-19 12:30N 54°24' E 018°40'0 0.0
2019-Sep-19 12:00N 54°24' E 018°40'0 0.0
2019-Sep-19 11:30N 54°24' E 018°40'0 0.0
2019-Sep-19 11:00N 54°24' E 018°40'0 0.0
2019-Sep-19 10:30N 54°24' E 018°40'0 0.0
2019-Sep-19 10:00N 54°24' E 018°40'0 0.0
2019-Sep-19 09:30N 54°24' E 018°40'0 0.0
2019-Sep-19 09:00N 54°24' E 018°40'0 0.0
2019-Sep-19 08:30N 54°24' E 018°40'0 0.0
2019-Sep-19 08:00N 54°24' E 018°40'0 0.0
2019-Sep-19 07:30N 54°24' E 018°40'0 0.0
2019-Sep-19 07:00N 54°24' E 018°40'0 0.0
2019-Sep-19 06:30N 54°24' E 018°40'0 0.0
2019-Sep-19 06:00N 54°24' E 018°40'2 4.1
2019-Sep-19 05:30N 54°26' E 018°40'5 9.3
2019-Sep-19 05:00N 54°30' E 018°45'510.2
2019-Sep-19 04:30N 54°34' E 018°50'510.1
2019-Sep-19 04:00N 54°38' E 018°55'510.3
2019-Sep-19 03:30N 54°43' E 018°58'5 9.6
2019-Sep-19 03:00N 54°47' E 018°54'611.0
2019-Sep-19 02:30N 54°51' E 018°47'511.0
2019-Sep-19 02:00N 54°54' E 018°39'5 9.9
2019-Sep-19 01:30N 54°55' E 018°31'510.1
2019-Sep-19 01:00N 54°55' E 018°22'710.3
2019-Sep-19 00:22N 54°56' E 018°11'410.1
2019-Sep-18 23:59N 54°56' E 018°04'8110.2
2019-Sep-18 16:04N 54°57' E 015°43'110.1
2019-Sep-18 16:00N 54°57' E 015°42'710.2
2019-Sep-18 15:19N 54°57' E 015°30'310.1
2019-Sep-18 15:00N 54°56' E 015°24'510.3
2019-Sep-18 14:30N 54°56' E 015°16'510.2
2019-Sep-18 14:00N 54°57' E 015°07'510.4
2019-Sep-18 13:30N 54°57' E 014°58'510.3
2019-Sep-18 13:00N 54°57' E 014°49'510.6
2019-Sep-18 12:30N 54°57' E 014°40'510.8
2019-Sep-18 12:00N 54°57' E 014°30'5111.2
2019-Sep-18 07:26N 55°12' E 013°05'511.0
2019-Sep-18 07:00N 55°14' E 012°57'610.9
2019-Sep-18 06:29N 55°16' E 012°48'511.2
2019-Sep-18 06:00N 55°18' E 012°39'5 9.8
2019-Sep-18 05:30N 55°23' E 012°39'510.5
2019-Sep-18 05:00N 55°28' E 012°41'510.6
2019-Sep-18 04:30N 55°33' E 012°42'5 9.7
2019-Sep-18 04:00N 55°38' E 012°42'611.3
2019-Sep-18 03:30N 55°44' E 012°41'511.0
2019-Sep-18 03:00N 55°49' E 012°42'611.5
2019-Sep-18 02:30N 55°54' E 012°38'611.2
2019-Sep-18 02:00N 56°00' E 012°38'510.5
2019-Sep-18 01:30N 56°05' E 012°35'6910.8
2019-Sep-17 19:03N 57°07' E 011°37'110.7
2019-Sep-17 19:00N 57°07' E 011°37'510.9
2019-Sep-17 18:30N 57°12' E 011°34'611.3
2019-Sep-17 18:00N 57°18' E 011°30'611.6
2019-Sep-17 17:30N 57°23' E 011°27'611.3
2019-Sep-17 17:00N 57°28' E 011°22'611.4
2019-Sep-17 16:30N 57°32' E 011°14'510.8
2019-Sep-17 16:00N 57°36' E 011°07'510.8
2019-Sep-17 15:30N 57°39' E 010°60'510.9
2019-Sep-17 15:00N 57°43' E 010°52'611.3
2019-Sep-17 14:30N 57°47' E 010°44'611.6
2019-Sep-17 14:00N 57°47' E 010°33'612.0
2019-Sep-17 13:30N 57°47' E 010°22'1811.2
2019-Sep-17 11:52N 57°49' E 009°47'412.1
2019-Sep-17 11:30N 57°50' E 009°39'612.3
2019-Sep-17 11:00N 57°50' E 009°28'611.9
2019-Sep-17 10:30N 57°51' E 009°16'611.4
2019-Sep-17 09:59N 57°51' E 009°05'510.8
2019-Sep-17 09:30N 57°51' E 008°56'5 9.8
2019-Sep-17 09:00N 57°52' E 008°47'510.6
2019-Sep-17 08:30N 57°52' E 008°37'510.8
2019-Sep-17 08:00N 57°52' E 008°27'510.6
2019-Sep-17 07:30N 57°53' E 008°17'510.3
2019-Sep-17 07:00N 57°53' E 008°07'510.0
2019-Sep-17 06:30N 57°54' E 007°58'510.0
2019-Sep-17 06:00N 57°54' E 007°48'510.2
2019-Sep-17 05:30N 57°55' E 007°39'510.1
2019-Sep-17 05:00N 57°55' E 007°29'5 9.8
2019-Sep-17 04:30N 57°56' E 007°20'510.1
2019-Sep-17 04:00N 57°56' E 007°10'510.3
2019-Sep-17 03:30N 57°56' E 007°01'510.0
2019-Sep-17 03:00N 57°58' E 006°52'611.1
2019-Sep-17 02:30N 58°00' E 006°42'611.1
2019-Sep-17 02:00N 58°03' E 006°33'510.9
2019-Sep-17 01:30N 58°06' E 006°25'510.6
2019-Sep-17 01:00N 58°10' E 006°17'611.7
2019-Sep-17 00:30N 58°14' E 006°10'611.8
2019-Sep-17 00:00N 58°18' E 006°02'611.5
2019-Sep-16 23:30N 58°22' E 005°54'611.4
2019-Sep-16 23:00N 58°26' E 005°46'611.2
2019-Sep-16 22:30N 58°30' E 005°39'612.1
2019-Sep-16 22:00N 58°35' E 005°33'612.1
2019-Sep-16 21:30N 58°40' E 005°26'611.7
2019-Sep-16 21:00N 58°45' E 005°20'611.7
2019-Sep-16 20:30N 58°50' E 005°14'611.7
2019-Sep-16 20:00N 58°55' E 005°08'611.6
2019-Sep-16 19:30N 58°59' E 005°01'510.8
2019-Sep-16 19:00N 59°04' E 004°54'510.4
2019-Sep-16 18:30N 59°08' E 004°48'510.0
2019-Sep-16 18:00N 59°12' E 004°43'5 9.7
2019-Sep-16 17:30N 59°17' E 004°41'510.0
2019-Sep-16 17:00N 59°22' E 004°41'5 9.9
2019-Sep-16 16:30N 59°27' E 004°41'5 9.5
2019-Sep-16 16:00N 59°32' E 004°41'5 9.7
2019-Sep-16 15:30N 59°36' E 004°42'5 9.6
2019-Sep-16 15:00N 59°41' E 004°42'5 9.4
2019-Sep-16 14:30N 59°46' E 004°42'4 9.0
2019-Sep-16 14:00N 59°50' E 004°42'5 9.1
2019-Sep-16 13:30N 59°55' E 004°42'5 9.2
2019-Sep-16 13:00N 59°60' E 004°41'5 9.5
2019-Sep-16 12:30N 60°04' E 004°41'5 9.3
2019-Sep-16 12:00N 60°09' E 004°40'4 9.2
2019-Sep-16 11:30N 60°13' E 004°40'5 9.1
2019-Sep-16 11:00N 60°18' E 004°40'4 8.8
2019-Sep-16 10:29N 60°22' E 004°39'4 8.9
2019-Sep-16 10:00N 60°27' E 004°39'4 8.8
2019-Sep-16 09:30N 60°31' E 004°39'4 8.6
2019-Sep-16 08:59N 60°36' E 004°39'5 9.3
2019-Sep-16 08:30N 60°40' E 004°38'4 8.8
2019-Sep-16 08:00N 60°45' E 004°39'4 7.2
2019-Sep-16 07:30N 60°47' E 004°45'4 8.4
2019-Sep-16 07:00N 60°51' E 004°47'510.5
2019-Sep-16 06:30N 60°51' E 004°58'3 5.9
2019-Sep-16 05:58N 60°51' E 005°04'0 0.0
2019-Sep-16 05:28N 60°51' E 005°04'0 0.0
2019-Sep-16 04:58N 60°51' E 005°04'0 0.0
2019-Sep-16 04:28N 60°51' E 005°04'0 0.0
2019-Sep-16 03:58N 60°51' E 005°04'0 0.0
2019-Sep-16 03:25N 60°51' E 005°04'0 0.0
2019-Sep-16 02:58N 60°51' E 005°04'0 0.0
2019-Sep-16 02:28N 60°51' E 005°04'0 0.0
2019-Sep-16 01:58N 60°51' E 005°04'0 0.0
2019-Sep-16 01:28N 60°51' E 005°04'0 0.0
2019-Sep-16 00:58N 60°51' E 005°04'0 0.0
2019-Sep-16 00:28N 60°51' E 005°04'0 0.0
2019-Sep-15 23:58N 60°51' E 005°04'0 0.0
2019-Sep-15 23:28N 60°51' E 005°04'0 0.0
2019-Sep-15 22:58N 60°51' E 005°04'0 0.0
2019-Sep-15 22:28N 60°51' E 005°04'0 0.0
2019-Sep-15 21:58N 60°51' E 005°04'0 0.0
2019-Sep-15 21:28N 60°51' E 005°04'0 0.0
2019-Sep-15 20:58N 60°51' E 005°04'0 0.0
2019-Sep-15 20:28N 60°51' E 005°04'0 0.0
2019-Sep-15 19:58N 60°51' E 005°04'0 0.0
2019-Sep-15 19:28N 60°51' E 005°04'0 0.0
2019-Sep-15 18:58N 60°51' E 005°04'0 0.0
2019-Sep-15 18:28N 60°51' E 005°04'0 0.0
2019-Sep-15 17:58N 60°51' E 005°04'0 0.0
2019-Sep-15 17:28N 60°51' E 005°04'0 0.0
2019-Sep-15 16:55N 60°51' E 005°04'0 0.0
2019-Sep-15 16:28N 60°51' E 005°04'0 0.0
2019-Sep-15 15:58N 60°51' E 005°04'0 0.0
2019-Sep-15 15:28N 60°51' E 005°04'0 0.0
2019-Sep-15 14:58N 60°51' E 005°04'0 0.0
2019-Sep-15 14:28N 60°51' E 005°04'0 0.0
2019-Sep-15 13:58N 60°51' E 005°04'0 0.0
2019-Sep-15 13:28N 60°51' E 005°04'0 0.0
2019-Sep-15 12:58N 60°51' E 005°04'0 0.0
2019-Sep-15 12:28N 60°51' E 005°04'0 0.0
2019-Sep-15 11:58N 60°51' E 005°04'0 0.0
2019-Sep-15 11:28N 60°51' E 005°04'0 0.0
2019-Sep-15 10:58N 60°51' E 005°04'0 0.0
2019-Sep-15 10:28N 60°51' E 005°04'0 0.0
2019-Sep-15 09:58N 60°51' E 005°04'0 0.0
2019-Sep-15 09:28N 60°51' E 005°04'0 0.0
2019-Sep-15 08:58N 60°51' E 005°04'0 0.0
2019-Sep-15 08:28N 60°51' E 005°04'0 0.0
2019-Sep-15 07:58N 60°51' E 005°04'0 0.0
2019-Sep-15 07:28N 60°51' E 005°04'0 0.0
2019-Sep-15 06:58N 60°51' E 005°04'0 0.0
2019-Sep-15 06:28N 60°51' E 005°04'0 0.0
2019-Sep-15 05:58N 60°51' E 005°04'0 0.0
2019-Sep-15 05:28N 60°51' E 005°04'0 0.0
2019-Sep-15 04:58N 60°51' E 005°04'0 0.0
2019-Sep-15 04:28N 60°51' E 005°04'0 0.0
2019-Sep-15 03:58N 60°51' E 005°04'0 0.0
2019-Sep-15 03:28N 60°51' E 005°04'0 0.0
2019-Sep-15 02:58N 60°51' E 005°04'0 0.0
2019-Sep-15 02:28N 60°51' E 005°04'0 0.0
2019-Sep-15 01:58N 60°51' E 005°04'0 0.0
2019-Sep-15 01:28N 60°51' E 005°04'0 0.0
2019-Sep-15 00:58N 60°51' E 005°04'0 0.0
2019-Sep-15 00:28N 60°51' E 005°04'0 0.0
2019-Sep-14 23:58N 60°51' E 005°04'0 0.0
2019-Sep-14 23:28N 60°51' E 005°04'0 0.0
2019-Sep-14 22:58N 60°51' E 005°04'0 0.0
2019-Sep-14 22:28N 60°51' E 005°04'0 0.0
2019-Sep-14 21:58N 60°51' E 005°04'0 0.0
2019-Sep-14 21:28N 60°51' E 005°04'0 0.0
2019-Sep-14 20:58N 60°51' E 005°04'0 0.3
2019-Sep-14 20:30N 60°51' E 005°04'3 5.2
2019-Sep-14 20:00N 60°49' E 005°03'0 0.0
2019-Sep-14 19:30N 60°49' E 005°03'0 0.0
2019-Sep-14 19:00N 60°49' E 005°03'0 0.0
2019-Sep-14 18:30N 60°49' E 005°03'0 0.0
2019-Sep-14 18:00N 60°49' E 005°03'0 0.0
2019-Sep-14 17:30N 60°49' E 005°03'0 0.0
2019-Sep-14 17:00N 60°49' E 005°03'0 0.0
2019-Sep-14 16:30N 60°49' E 005°03'0 0.0
2019-Sep-14 16:00N 60°49' E 005°03'0 0.0
2019-Sep-14 15:30N 60°49' E 005°03'0 0.0
2019-Sep-14 15:00N 60°49' E 005°03'0 0.0
2019-Sep-14 14:30N 60°49' E 005°03'0 0.0
2019-Sep-14 14:00N 60°49' E 005°03'0 0.0
2019-Sep-14 13:30N 60°49' E 005°03'0 0.0
2019-Sep-14 13:00N 60°49' E 005°03'0 0.0
2019-Sep-14 12:30N 60°49' E 005°03'0 0.0
2019-Sep-14 12:00N 60°49' E 005°03'0 0.0
2019-Sep-14 11:30N 60°49' E 005°03'0 0.0
2019-Sep-14 11:00N 60°49' E 005°03'0 0.0
2019-Sep-14 10:30N 60°49' E 005°03'0 0.0
2019-Sep-14 10:00N 60°49' E 005°03'0 0.0
2019-Sep-14 09:30N 60°49' E 005°03'0 0.0
2019-Sep-14 09:00N 60°49' E 005°03'0 0.0
2019-Sep-14 08:30N 60°49' E 005°03'0 0.0
2019-Sep-14 08:00N 60°49' E 005°03'0 0.0
2019-Sep-14 07:30N 60°49' E 005°03'0 0.0
2019-Sep-14 07:00N 60°49' E 005°03'0 0.0
2019-Sep-14 06:30N 60°49' E 005°03'0 0.0
2019-Sep-14 06:00N 60°49' E 005°03'0 0.0
2019-Sep-14 05:30N 60°49' E 005°03'0 0.0
2019-Sep-14 05:00N 60°49' E 005°03'0 0.0
2019-Sep-14 04:30N 60°49' E 005°03'0 0.0
2019-Sep-14 04:00N 60°49' E 005°03'0 0.0
2019-Sep-14 03:30N 60°49' E 005°03'0 0.0
2019-Sep-14 03:00N 60°49' E 005°03'0 0.0
2019-Sep-14 02:30N 60°49' E 005°03'0 0.0
2019-Sep-14 02:00N 60°49' E 005°03'0 0.0
2019-Sep-14 01:27N 60°49' E 005°03'0 0.0
2019-Sep-14 01:00N 60°49' E 005°03'0 0.0
2019-Sep-14 00:30N 60°49' E 005°03'0 0.0
2019-Sep-14 00:00N 60°49' E 005°03'0 0.0
2019-Sep-13 23:30N 60°49' E 005°03'0 0.0
2019-Sep-13 23:00N 60°49' E 005°03'0 0.0
2019-Sep-13 22:30N 60°49' E 005°03'0 0.0
2019-Sep-13 22:00N 60°49' E 005°03'0 0.0
2019-Sep-13 21:30N 60°49' E 005°03'0 0.0
2019-Sep-13 21:00N 60°49' E 005°03'0 0.0
2019-Sep-13 20:30N 60°49' E 005°03'0 0.0
2019-Sep-13 20:00N 60°49' E 005°03'0 0.0
2019-Sep-13 19:30N 60°49' E 005°03'0 0.0
2019-Sep-13 19:00N 60°49' E 005°03'0 0.0
2019-Sep-13 18:30N 60°49' E 005°03'0 0.0
2019-Sep-13 18:00N 60°49' E 005°03'0 0.0
2019-Sep-13 17:30N 60°49' E 005°03'0 0.0
2019-Sep-13 17:00N 60°49' E 005°03'0 0.0
2019-Sep-13 16:30N 60°49' E 005°03'0 0.0
2019-Sep-13 16:00N 60°49' E 005°03'0 0.0
2019-Sep-13 15:30N 60°49' E 005°03'0 0.0
2019-Sep-13 15:00N 60°49' E 005°03'0 0.0
2019-Sep-13 14:30N 60°49' E 005°03'0 0.0
2019-Sep-13 14:00N 60°49' E 005°03'0 0.0
2019-Sep-13 13:30N 60°49' E 005°03'0 0.0
2019-Sep-13 13:00N 60°49' E 005°03'0 0.0
2019-Sep-13 12:30N 60°49' E 005°03'0 0.0
2019-Sep-13 12:00N 60°49' E 005°03'0 0.0
2019-Sep-13 11:30N 60°49' E 005°03'0 0.0
2019-Sep-13 11:00N 60°49' E 005°03'0 0.0
2019-Sep-13 10:30N 60°49' E 005°03'0 0.0
2019-Sep-13 10:00N 60°49' E 005°03'0 0.0
2019-Sep-13 09:30N 60°49' E 005°03'0 0.0
2019-Sep-13 09:00N 60°49' E 005°03'0 0.0
2019-Sep-13 08:30N 60°49' E 005°03'0 0.0
2019-Sep-13 08:00N 60°49' E 005°03'0 0.0
2019-Sep-13 07:30N 60°49' E 005°03'0 0.0
2019-Sep-13 07:00N 60°49' E 005°03'0 0.0
2019-Sep-13 06:30N 60°49' E 005°03'0 0.0
2019-Sep-13 06:00N 60°49' E 005°03'0 0.0
2019-Sep-13 05:30N 60°49' E 005°03'0 0.0
2019-Sep-13 05:00N 60°49' E 005°03'0 0.0
2019-Sep-13 04:30N 60°49' E 005°03'0 0.0
2019-Sep-13 03:59N 60°49' E 005°03'1 1.3
2019-Sep-13 03:30N 60°49' E 005°02'510.3
2019-Sep-13 03:00N 60°51' E 004°52'7 7.3
2019-Sep-13 02:00N 60°45' E 004°45'4 7.6
2019-Sep-13 01:30N 60°42' E 004°39'611.4
2019-Sep-13 01:00N 60°36' E 004°41'611.3
2019-Sep-13 00:30N 60°31' E 004°44'611.4
2019-Sep-13 00:00N 60°25' E 004°47'610.9
2019-Sep-12 23:30N 60°20' E 004°49'510.6
2019-Sep-12 23:00N 60°15' E 004°52'510.6
2019-Sep-12 22:30N 60°10' E 004°54'611.0
2019-Sep-12 21:59N 60°04' E 004°56'510.6
2019-Sep-12 21:30N 59°59' E 004°54'510.8
2019-Sep-12 21:00N 59°54' E 004°53'510.7
2019-Sep-12 20:30N 59°48' E 004°51'511.1
2019-Sep-12 20:00N 59°43' E 004°50'611.2
2019-Sep-12 19:30N 59°37' E 004°48'611.3
2019-Sep-12 18:59N 59°32' E 004°47'611.7
2019-Sep-12 18:30N 59°26' E 004°45'611.7
2019-Sep-12 18:00N 59°20' E 004°43'611.3
2019-Sep-12 17:30N 59°15' E 004°43'511.1
2019-Sep-12 17:00N 59°10' E 004°49'611.2
2019-Sep-12 16:30N 59°05' E 004°55'611.3
2019-Sep-12 16:00N 59°01' E 005°01'611.3
2019-Sep-12 15:30N 58°56' E 005°07'610.9
2019-Sep-12 15:00N 58°51' E 005°13'510.4
2019-Sep-12 14:30N 58°47' E 005°18'510.3
2019-Sep-12 14:00N 58°43' E 005°23'510.2
2019-Sep-12 13:30N 58°38' E 005°28'510.2
2019-Sep-12 13:00N 58°34' E 005°34'5 9.8
2019-Sep-12 12:30N 58°30' E 005°40'510.0
2019-Sep-12 12:00N 58°27' E 005°47'510.1
2019-Sep-12 11:30N 58°23' E 005°53'510.5
2019-Sep-12 11:00N 58°19' E 006°01'510.5
2019-Sep-12 10:30N 58°16' E 006°08'510.3
2019-Sep-12 10:00N 58°12' E 006°15'510.1
2019-Sep-12 09:30N 58°09' E 006°22'5 9.9
2019-Sep-12 09:00N 58°05' E 006°29'5 9.4
2019-Sep-12 08:30N 58°03' E 006°36'5 9.6
2019-Sep-12 08:00N 58°01' E 006°44'5 9.8
2019-Sep-12 07:30N 57°59' E 006°53'5 9.6
2019-Sep-12 07:00N 57°57' E 007°01'5 9.2
2019-Sep-12 06:30N 57°56' E 007°10'5 9.2
2019-Sep-12 06:00N 57°56' E 007°18'5 9.0
2019-Sep-12 05:29N 57°55' E 007°27'4 8.9
2019-Sep-12 05:00N 57°56' E 007°35'5 9.0
2019-Sep-12 04:30N 57°55' E 007°44'5 9.1
2019-Sep-12 04:00N 57°55' E 007°52'4 8.7
2019-Sep-12 03:30N 57°55' E 008°00'4 8.3
2019-Sep-12 03:00N 57°54' E 008°08'4 7.9
2019-Sep-12 02:30N 57°54' E 008°15'4 7.7
2019-Sep-12 02:00N 57°54' E 008°23'4 7.4
2019-Sep-12 01:30N 57°54' E 008°30'4 7.3
2019-Sep-12 01:00N 57°54' E 008°37'4 7.8
2019-Sep-12 00:30N 57°54' E 008°44'4 7.5
2019-Sep-12 00:00N 57°53' E 008°51'4 8.4
2019-Sep-11 23:29N 57°53' E 008°59'4 8.8
2019-Sep-11 23:00N 57°53' E 009°07'4 8.7
2019-Sep-11 22:29N 57°53' E 009°15'4 8.4
2019-Sep-11 22:00N 57°52' E 009°23'4 8.3
2019-Sep-11 21:30N 57°52' E 009°31'4 8.3
2019-Sep-11 21:00N 57°51' E 009°39'4 8.0
2019-Sep-11 20:27N 57°51' E 009°47'4 8.2
2019-Sep-11 19:59N 57°51' E 009°54'15 6.4
2019-Sep-11 17:40N 57°50' E 010°22'1 6.3
2019-Sep-11 17:30N 57°50' E 010°24'3 6.8
2019-Sep-11 17:00N 57°50' E 010°30'5 9.3
2019-Sep-11 16:30N 57°50' E 010°39'5 9.3
2019-Sep-11 16:00N 57°49' E 010°47'510.4
2019-Sep-11 15:30N 57°45' E 010°55'510.5
2019-Sep-11 15:00N 57°41' E 011°02'510.5
2019-Sep-11 14:30N 57°38' E 011°09'510.8
2019-Sep-11 14:00N 57°34' E 011°16'510.9
2019-Sep-11 13:30N 57°30' E 011°23'611.2
2019-Sep-11 13:00N 57°25' E 011°29'612.3
2019-Sep-11 12:30N 57°20' E 011°32'612.0
2019-Sep-11 12:00N 57°14' E 011°35'611.8
2019-Sep-11 11:30N 57°08' E 011°39'611.7
2019-Sep-11 11:00N 57°03' E 011°43'611.7
2019-Sep-11 10:28N 56°57' E 011°47'611.4
2019-Sep-11 09:58N 56°52' E 011°50'4510.4
2019-Sep-11 05:41N 56°11' E 012°24'2 9.7
2019-Sep-11 05:30N 56°10' E 012°26'5 9.6
2019-Sep-11 05:00N 56°07' E 012°33'510.3
2019-Sep-11 04:30N 56°03' E 012°40'510.7
2019-Sep-11 04:00N 55°58' E 012°43'510.3
2019-Sep-11 03:30N 55°53' E 012°44'611.1
2019-Sep-11 03:00N 55°48' E 012°43'611.3
2019-Sep-11 02:30N 55°42' E 012°41'510.1
2019-Sep-11 02:00N 55°37' E 012°42'4 8.5
2019-Sep-11 01:30N 55°33' E 012°43'5 9.1
2019-Sep-11 01:00N 55°28' E 012°43'510.6
2019-Sep-11 00:30N 55°23' E 012°42'5 9.8
2019-Sep-11 00:00N 55°18' E 012°42'610.1
2019-Sep-10 23:26N 55°16' E 012°52'64 9.3
2019-Sep-10 16:35N 55°22' E 014°44'111.3
2019-Sep-10 16:28N 55°22' E 014°46'511.4
2019-Sep-10 16:00N 55°20' E 014°55'611.3
2019-Sep-10 15:28N 55°18' E 015°05'511.2
2019-Sep-10 15:00N 55°17' E 015°13'611.3
2019-Sep-10 14:29N 55°16' E 015°23'611.4
2019-Sep-10 14:00N 55°15' E 015°33'611.5
2019-Sep-10 13:30N 55°13' E 015°43'8111.2
2019-Sep-10 06:19N 54°56' E 018°00'411.3
2019-Sep-10 06:00N 54°56' E 018°06'611.3
2019-Sep-10 05:28N 54°56' E 018°17'511.5
2019-Sep-10 05:00N 54°56' E 018°26'611.2
2019-Sep-10 04:30N 54°56' E 018°36'611.6
2019-Sep-10 04:00N 54°52' E 018°44'611.7
2019-Sep-10 03:30N 54°49' E 018°52'611.8
2019-Sep-10 03:00N 54°45' E 018°59'611.2
2019-Sep-10 02:30N 54°39' E 018°57'611.6
2019-Sep-10 02:00N 54°34' E 018°52'611.6
2019-Sep-10 01:30N 54°30' E 018°46'611.3
2019-Sep-10 01:00N 54°26' E 018°39'2 4.1
2019-Sep-10 00:30N 54°24' E 018°41'0 0.0
2019-Sep-10 00:00N 54°24' E 018°41'0 0.0
2019-Sep-09 23:30N 54°24' E 018°41'0 0.0
2019-Sep-09 23:00N 54°24' E 018°41'0 0.0
2019-Sep-09 22:30N 54°24' E 018°41'0 0.0
2019-Sep-09 22:00N 54°24' E 018°41'0 0.0
2019-Sep-09 21:30N 54°24' E 018°41'0 0.0
2019-Sep-09 21:00N 54°24' E 018°41'0 0.0
2019-Sep-09 20:30N 54°24' E 018°41'0 0.0
2019-Sep-09 20:00N 54°24' E 018°41'  

Dump ship's entire track history